createdAt,value
2023-05-19T00:02:33.742Z,100.00
2023-05-19T00:05:21.097Z,100.00
2023-05-19T00:08:10.744Z,100.00
2023-05-19T00:10:58.563Z,100.00
2023-05-19T00:13:49.605Z,100.00
2023-05-19T00:16:42.250Z,100.00
2023-05-19T00:19:32.235Z,100.00
2023-05-19T00:22:19.173Z,100.00
2023-05-19T00:25:06.886Z,100.00
2023-05-19T00:27:53.701Z,100.00
2023-05-19T00:30:40.555Z,100.00
2023-05-19T00:33:27.584Z,100.00
2023-05-19T00:36:14.549Z,100.00
2023-05-19T00:39:01.458Z,100.00
2023-05-19T00:41:48.388Z,100.00
2023-05-19T00:44:40.169Z,100.00
2023-05-19T00:47:27.128Z,100.00
2023-05-19T00:50:14.025Z,100.00
2023-05-19T00:53:00.999Z,100.00
2023-05-19T00:55:48.255Z,100.00
2023-05-19T00:58:36.488Z,100.00
2023-05-19T01:01:23.519Z,100.00
2023-05-19T01:04:11.372Z,100.00
2023-05-19T01:06:58.327Z,100.00
2023-05-19T01:09:46.015Z,100.00
2023-05-19T01:12:36.436Z,100.00
2023-05-19T01:15:26.968Z,100.00
2023-05-19T01:18:18.358Z,100.00
2023-05-19T01:21:17.018Z,100.00
2023-05-19T01:24:32.356Z,100.00
2023-05-19T01:27:29.711Z,100.00
2023-05-19T01:30:16.525Z,100.00
2023-05-19T01:33:07.314Z,100.00
2023-05-19T01:35:55.694Z,100.00
2023-05-19T01:38:43.499Z,100.00
2023-05-19T01:41:32.475Z,100.00
2023-05-19T01:44:19.683Z,100.00
2023-05-19T01:47:07.285Z,100.00
2023-05-19T01:49:54.135Z,100.00
2023-05-19T01:52:41.019Z,100.00
2023-05-19T01:55:28.019Z,100.00
2023-05-19T01:58:36.194Z,100.00
2023-05-19T02:01:43.374Z,100.00
2023-05-19T02:04:31.289Z,100.00
2023-05-19T02:07:42.048Z,100.00
2023-05-19T02:10:32.994Z,100.00
2023-05-19T02:13:22.619Z,100.00
2023-05-19T02:16:11.259Z,100.00
2023-05-19T02:18:59.564Z,100.00
2023-05-19T02:21:46.562Z,100.00
2023-05-19T02:24:33.443Z,100.00
2023-05-19T02:27:20.329Z,100.00
2023-05-19T02:30:08.871Z,100.00
2023-05-19T02:32:55.778Z,100.00
2023-05-19T02:35:42.672Z,100.00
2023-05-19T02:38:29.520Z,100.00
2023-05-19T02:41:16.372Z,100.00
2023-05-19T02:44:03.442Z,100.00
2023-05-19T02:46:50.514Z,100.00
2023-05-19T02:49:37.845Z,100.00
2023-05-19T02:52:24.968Z,100.00
2023-05-19T02:55:16.969Z,100.00
2023-05-19T02:58:04.187Z,100.00
2023-05-19T03:00:51.479Z,100.00
2023-05-19T03:03:38.454Z,100.00
2023-05-19T03:06:25.388Z,100.00
2023-05-19T03:09:15.393Z,100.00
2023-05-19T03:12:04.009Z,100.00
2023-05-19T03:14:51.154Z,100.00
2023-05-19T03:17:39.243Z,100.00
2023-05-19T03:20:26.223Z,100.00
2023-05-19T03:23:14.249Z,100.00
2023-05-19T03:26:01.349Z,100.00
2023-05-19T03:28:48.184Z,100.00
2023-05-19T03:31:35.156Z,100.00
2023-05-19T03:34:22.461Z,100.00
2023-05-19T03:37:10.725Z,100.00
2023-05-19T03:39:57.601Z,100.00
2023-05-19T03:42:44.541Z,100.00
2023-05-19T03:45:31.438Z,100.00
2023-05-19T03:48:21.121Z,100.00
2023-05-19T03:51:09.018Z,100.00
2023-05-19T03:53:56.171Z,100.00
2023-05-19T03:56:43.377Z,100.00
2023-05-19T03:59:30.232Z,100.00
2023-05-19T04:02:17.140Z,100.00
2023-05-19T04:05:07.201Z,100.00
2023-05-19T04:07:54.062Z,100.00
2023-05-19T04:10:40.925Z,100.00
2023-05-19T04:13:27.962Z,100.00
2023-05-19T04:16:15.053Z,100.00
2023-05-19T04:19:02.025Z,100.00
2023-05-19T04:21:49.006Z,100.00
2023-05-19T04:24:36.178Z,100.00
2023-05-19T04:27:23.098Z,100.00
2023-05-19T04:30:10.280Z,100.00
2023-05-19T04:32:58.187Z,100.00
2023-05-19T04:35:45.216Z,100.00
2023-05-19T04:38:32.324Z,100.00
2023-05-19T04:41:19.279Z,100.00
2023-05-19T04:44:08.972Z,100.00
2023-05-19T04:46:57.846Z,100.00
2023-05-19T04:49:44.857Z,100.00
2023-05-19T04:52:32.152Z,100.00
2023-05-19T04:55:19.168Z,100.00
2023-05-19T04:58:06.423Z,100.00
2023-05-19T05:00:57.850Z,100.00
2023-05-19T05:03:44.701Z,100.00
2023-05-19T05:06:32.360Z,100.00
2023-05-19T05:09:20.167Z,100.00
2023-05-19T05:12:08.085Z,99.80
2023-05-19T05:14:55.460Z,99.88
2023-05-19T05:17:43.654Z,99.99
2023-05-19T05:20:31.478Z,98.25
2023-05-19T05:23:18.815Z,97.70
2023-05-19T05:26:16.687Z,97.02
2023-05-19T05:29:04.153Z,95.88
2023-05-19T05:31:51.155Z,96.06
2023-05-19T05:34:39.848Z,96.28
2023-05-19T05:37:26.686Z,96.06
2023-05-19T05:40:13.664Z,94.84
2023-05-19T05:43:00.639Z,93.48
2023-05-19T05:45:47.647Z,92.33
2023-05-19T05:48:35.017Z,89.99
2023-05-19T05:51:23.025Z,89.86
2023-05-19T05:54:12.201Z,91.15
2023-05-19T05:56:59.502Z,90.89
2023-05-19T05:59:47.181Z,90.73
2023-05-19T06:02:34.358Z,91.04
2023-05-19T06:05:21.556Z,90.01
2023-05-19T06:08:08.493Z,89.23
2023-05-19T06:10:55.444Z,89.25
2023-05-19T06:13:42.441Z,88.17
2023-05-19T06:16:29.477Z,88.99
2023-05-19T06:19:16.716Z,88.15
2023-05-19T06:22:03.874Z,87.57
2023-05-19T06:24:50.811Z,86.79
2023-05-19T06:27:37.650Z,86.50
2023-05-19T06:30:24.562Z,87.71
2023-05-19T06:33:11.880Z,86.47
2023-05-19T06:35:59.607Z,84.47
2023-05-19T06:38:46.551Z,85.71
2023-05-19T06:41:34.588Z,84.37
2023-05-19T06:44:22.674Z,85.36
2023-05-19T06:47:15.134Z,84.88
2023-05-19T06:50:01.999Z,84.55
2023-05-19T06:52:48.873Z,84.65
2023-05-19T06:55:41.398Z,85.62
2023-05-19T06:58:39.412Z,84.63
2023-05-19T07:01:27.992Z,84.21
2023-05-19T07:04:15.673Z,83.29
2023-05-19T07:07:03.029Z,84.35
2023-05-19T07:09:49.987Z,84.13
2023-05-19T07:12:36.815Z,83.59
2023-05-19T07:15:23.756Z,83.40
2023-05-19T07:18:10.809Z,82.27
2023-05-19T07:20:58.473Z,81.99
2023-05-19T07:23:45.506Z,81.82
2023-05-19T07:26:32.389Z,81.92
2023-05-19T07:29:19.312Z,81.76
2023-05-19T07:32:06.744Z,81.35
2023-05-19T07:34:53.640Z,79.72
2023-05-19T07:37:40.585Z,80.23
2023-05-19T07:40:27.427Z,80.02
2023-05-19T07:43:14.351Z,81.53
2023-05-19T07:46:01.253Z,80.66
2023-05-19T07:48:48.278Z,79.47
2023-05-19T07:51:35.174Z,76.74
2023-05-19T07:54:22.132Z,79.72
2023-05-19T07:57:08.960Z,78.25
2023-05-19T07:59:55.895Z,78.13
2023-05-19T08:02:42.872Z,78.01
2023-05-19T08:05:30.051Z,77.73
2023-05-19T08:08:17.119Z,76.48
2023-05-19T08:11:21.976Z,78.97
2023-05-19T08:14:09.068Z,78.84
2023-05-19T08:16:56.390Z,78.15
2023-05-19T08:19:43.540Z,77.77
2023-05-19T08:22:30.438Z,77.33
2023-05-19T08:25:17.301Z,78.01
2023-05-19T08:28:04.332Z,76.05
2023-05-19T08:30:52.523Z,76.34
2023-05-19T08:33:39.434Z,77.45
2023-05-19T08:36:26.388Z,75.95
2023-05-19T08:39:14.203Z,76.90
2023-05-19T08:42:02.363Z,76.87
2023-05-19T08:44:49.484Z,76.73
2023-05-19T08:47:36.649Z,77.57
2023-05-19T08:50:30.701Z,76.91
2023-05-19T08:53:33.303Z,80.11
2023-05-19T08:56:25.327Z,78.36
2023-05-19T08:59:14.588Z,75.90
2023-05-19T09:02:02.306Z,76.42
2023-05-19T09:04:49.453Z,75.54
2023-05-19T09:07:38.246Z,76.07
2023-05-19T09:10:26.059Z,74.20
2023-05-19T09:13:14.048Z,75.38
2023-05-19T09:16:02.067Z,75.54
2023-05-19T09:18:56.501Z,74.17
2023-05-19T09:21:45.700Z,76.70
2023-05-19T09:24:34.510Z,76.59
2023-05-19T09:27:23.494Z,76.92
2023-05-19T09:30:10.583Z,81.05
2023-05-19T09:32:57.611Z,79.72
2023-05-19T09:35:47.462Z,80.78
2023-05-19T09:38:38.526Z,77.40
2023-05-19T09:41:26.417Z,78.53
2023-05-19T09:44:35.096Z,77.59
2023-05-19T09:47:21.982Z,76.14
2023-05-19T09:50:10.994Z,76.28
2023-05-19T09:52:58.553Z,77.75
2023-05-19T09:55:45.655Z,76.74
2023-05-19T09:58:36.700Z,77.85
2023-05-19T10:01:24.529Z,78.72
2023-05-19T10:04:12.598Z,76.87
2023-05-19T10:07:00.163Z,74.25
2023-05-19T10:09:49.082Z,73.53
2023-05-19T10:12:38.006Z,75.36
2023-05-19T10:15:25.281Z,74.76
2023-05-19T10:18:12.429Z,75.59
2023-05-19T10:21:00.699Z,77.74
2023-05-19T10:23:47.584Z,76.42
2023-05-19T10:26:35.781Z,77.60
2023-05-19T10:29:28.163Z,78.38
2023-05-19T10:32:19.774Z,77.75
2023-05-19T10:35:25.670Z,77.32
2023-05-19T10:38:35.579Z,74.58
2023-05-19T10:41:40.393Z,74.99
2023-05-19T10:44:52.497Z,75.33
2023-05-19T10:47:42.549Z,73.97
2023-05-19T10:50:37.767Z,76.52
2023-05-19T10:53:31.781Z,75.62
2023-05-19T10:56:36.378Z,76.06
2023-05-19T10:59:34.653Z,76.00
2023-05-19T11:02:41.298Z,75.82
2023-05-19T11:05:29.833Z,76.00
2023-05-19T11:08:17.981Z,76.28
2023-05-19T11:11:16.501Z,76.11
2023-05-19T11:14:04.268Z,75.71
2023-05-19T11:16:53.010Z,76.35
2023-05-19T11:19:41.943Z,76.54
2023-05-19T11:22:28.867Z,76.61
2023-05-19T11:25:38.295Z,76.24
2023-05-19T11:28:26.658Z,75.63
2023-05-19T11:31:13.729Z,77.21
2023-05-19T11:34:00.946Z,76.26
2023-05-19T11:36:48.753Z,77.64
2023-05-19T11:39:35.899Z,77.77
2023-05-19T11:42:23.632Z,76.31
2023-05-19T11:45:10.678Z,76.59
2023-05-19T11:48:02.818Z,77.37
2023-05-19T11:50:50.866Z,76.75
2023-05-19T11:53:38.729Z,77.53
2023-05-19T11:56:25.646Z,78.15
2023-05-19T11:59:12.642Z,75.97
2023-05-19T12:02:14.429Z,76.83
2023-05-19T12:05:01.988Z,75.05
2023-05-19T12:07:52.187Z,75.97
2023-05-19T12:10:40.576Z,76.01
2023-05-19T12:13:27.617Z,75.05
2023-05-19T12:16:14.734Z,74.72
2023-05-19T12:19:02.318Z,75.29
2023-05-19T12:21:49.520Z,74.00
2023-05-19T12:24:37.930Z,71.74
2023-05-19T12:27:26.518Z,73.30
2023-05-19T12:30:13.365Z,71.26
2023-05-19T12:33:02.153Z,71.33
2023-05-19T12:35:50.023Z,71.67
2023-05-19T12:38:39.549Z,70.44
2023-05-19T12:41:27.343Z,71.45
2023-05-19T12:44:17.559Z,72.52
2023-05-19T12:47:05.990Z,73.61
2023-05-19T12:49:57.274Z,75.12
2023-05-19T12:52:46.827Z,75.89
2023-05-19T12:55:42.934Z,75.94
2023-05-19T12:58:34.241Z,76.22
2023-05-19T13:01:22.796Z,76.21
2023-05-19T13:04:09.886Z,77.58
2023-05-19T13:06:56.821Z,77.85
2023-05-19T13:09:43.723Z,77.12
2023-05-19T13:12:30.732Z,76.60
2023-05-19T13:15:17.755Z,76.26
2023-05-19T13:18:07.187Z,75.78
2023-05-19T13:20:54.682Z,76.42
2023-05-19T13:23:41.626Z,76.67
2023-05-19T13:26:28.489Z,76.47
2023-05-19T13:29:15.414Z,76.48
2023-05-19T13:32:02.344Z,76.66
2023-05-19T13:34:49.260Z,76.35
2023-05-19T13:37:36.299Z,76.57
2023-05-19T13:40:24.210Z,76.37
2023-05-19T13:43:11.153Z,77.11
2023-05-19T13:45:58.022Z,78.01
2023-05-19T13:48:44.893Z,77.95
2023-05-19T13:51:31.874Z,77.52
2023-05-19T13:54:18.732Z,77.82
2023-05-19T13:57:06.293Z,79.12
2023-05-19T14:00:02.798Z,77.87
2023-05-19T14:02:50.889Z,78.90
2023-05-19T14:05:37.998Z,78.29
2023-05-19T14:08:24.849Z,78.26
2023-05-19T14:11:21.540Z,78.15
2023-05-19T14:14:09.916Z,78.17
2023-05-19T14:16:58.222Z,78.32
2023-05-19T14:19:45.131Z,79.66
2023-05-19T14:22:32.299Z,79.31
2023-05-19T14:25:19.182Z,78.20
2023-05-19T14:28:06.020Z,79.13
2023-05-19T14:30:53.006Z,78.37
2023-05-19T14:33:43.233Z,78.38
2023-05-19T14:36:30.155Z,77.87
2023-05-19T14:39:17.079Z,77.84
2023-05-19T14:42:04.012Z,78.51
2023-05-19T14:44:50.874Z,78.49
2023-05-19T14:47:38.010Z,79.27
2023-05-19T14:50:26.096Z,79.12
2023-05-19T14:53:14.006Z,79.75
2023-05-19T14:56:00.943Z,78.40
2023-05-19T14:58:47.785Z,78.30
2023-05-19T15:01:34.694Z,78.47
2023-05-19T15:04:21.778Z,78.83
2023-05-19T15:07:10.262Z,78.75
2023-05-19T15:09:57.955Z,79.14
2023-05-19T15:12:44.869Z,78.72
2023-05-19T15:15:32.083Z,78.36
2023-05-19T15:18:18.985Z,78.82
2023-05-19T15:21:05.969Z,79.34
2023-05-19T15:23:52.881Z,80.06
2023-05-19T15:26:39.836Z,80.75
2023-05-19T15:29:26.705Z,79.99
2023-05-19T15:32:13.652Z,78.68
2023-05-19T15:35:00.730Z,78.76
2023-05-19T15:37:47.581Z,78.52
2023-05-19T15:40:34.786Z,78.58
2023-05-19T15:43:22.197Z,78.37
2023-05-19T15:46:09.165Z,78.21
2023-05-19T15:48:56.142Z,77.55
2023-05-19T15:51:43.105Z,78.84
2023-05-19T15:54:29.979Z,78.77
2023-05-19T15:57:16.853Z,79.13
2023-05-19T16:00:03.996Z,79.06
2023-05-19T16:02:51.233Z,78.76
2023-05-19T16:05:38.217Z,79.45
2023-05-19T16:08:25.459Z,79.71
2023-05-19T16:11:12.500Z,79.81
2023-05-19T16:13:59.491Z,79.19
2023-05-19T16:16:46.674Z,79.93
2023-05-19T16:19:33.602Z,79.40
2023-05-19T16:22:24.530Z,79.60
2023-05-19T16:25:11.530Z,80.01
2023-05-19T16:27:58.540Z,80.60
2023-05-19T16:30:46.133Z,80.90
2023-05-19T16:33:33.025Z,81.05
2023-05-19T16:36:22.698Z,80.83
2023-05-19T16:39:09.608Z,80.71
2023-05-19T16:41:56.480Z,81.44
2023-05-19T16:44:43.459Z,81.42
2023-05-19T16:47:30.373Z,81.91
2023-05-19T16:50:17.415Z,81.77
2023-05-19T16:53:04.341Z,81.73
2023-05-19T16:55:51.235Z,82.48
2023-05-19T16:58:38.077Z,82.64
2023-05-19T17:01:25.017Z,83.01
2023-05-19T17:04:11.956Z,83.04
2023-05-19T17:06:58.911Z,83.57
2023-05-19T17:09:45.767Z,83.97
2023-05-19T17:12:32.787Z,83.92
2023-05-19T17:15:19.738Z,84.53
2023-05-19T17:18:06.816Z,84.68
2023-05-19T17:20:54.044Z,84.94
2023-05-19T17:23:40.983Z,85.56
2023-05-19T17:26:30.567Z,85.68
2023-05-19T17:29:17.499Z,86.67
2023-05-19T17:32:04.774Z,86.14
2023-05-19T17:34:51.749Z,86.43
2023-05-19T17:37:38.601Z,85.72
2023-05-19T17:40:25.525Z,86.52
2023-05-19T17:43:12.713Z,86.75
2023-05-19T17:46:01.051Z,86.98
2023-05-19T17:48:48.172Z,87.58
2023-05-19T17:51:35.343Z,88.23
2023-05-19T17:54:22.473Z,88.48
2023-05-19T17:57:14.680Z,88.93
2023-05-19T18:00:02.990Z,88.56
2023-05-19T18:02:50.394Z,89.32
2023-05-19T18:05:39.986Z,89.43
2023-05-19T18:08:28.421Z,88.87
2023-05-19T18:11:16.128Z,90.01
2023-05-19T18:14:03.157Z,90.03
2023-05-19T18:16:50.153Z,90.21
2023-05-19T18:19:37.080Z,90.61
2023-05-19T18:22:23.957Z,90.73
2023-05-19T18:25:10.834Z,90.88
2023-05-19T18:28:00.477Z,91.70
2023-05-19T18:30:47.349Z,91.01
2023-05-19T18:33:34.676Z,91.85
2023-05-19T18:36:21.632Z,91.67
2023-05-19T18:39:08.513Z,91.33
2023-05-19T18:41:55.472Z,91.92
2023-05-19T18:44:46.685Z,91.58
2023-05-19T18:47:33.589Z,92.19
2023-05-19T18:50:20.651Z,91.90
2023-05-19T18:53:07.555Z,91.86
2023-05-19T18:55:54.423Z,92.23
2023-05-19T18:58:41.304Z,92.73
2023-05-19T19:01:28.330Z,93.44
2023-05-19T19:04:16.635Z,93.03
2023-05-19T19:07:05.552Z,92.97
2023-05-19T19:09:52.406Z,93.46
2023-05-19T19:12:39.358Z,93.31
2023-05-19T19:15:28.295Z,93.80
2023-05-19T19:18:15.164Z,93.87
2023-05-19T19:21:06.030Z,93.80
2023-05-19T19:23:54.680Z,94.18
2023-05-19T19:26:41.591Z,93.91
2023-05-19T19:29:28.422Z,94.37
2023-05-19T19:32:15.362Z,94.75
2023-05-19T19:35:02.267Z,94.61
2023-05-19T19:37:49.191Z,95.24
2023-05-19T19:40:36.391Z,95.13
2023-05-19T19:43:23.686Z,95.83
2023-05-19T19:46:10.584Z,96.39
2023-05-19T19:49:00.633Z,96.76
2023-05-19T19:51:47.561Z,95.97
2023-05-19T19:54:34.549Z,96.22
2023-05-19T19:57:21.758Z,95.83
2023-05-19T20:00:09.269Z,96.14
2023-05-19T20:03:05.174Z,96.31
2023-05-19T20:05:55.157Z,96.65
2023-05-19T20:08:42.073Z,97.00
2023-05-19T20:11:29.016Z,96.82
2023-05-19T20:14:18.765Z,96.93
2023-05-19T20:17:05.816Z,97.47
2023-05-19T20:19:52.723Z,97.44
2023-05-19T20:22:39.682Z,98.67
2023-05-19T20:25:27.055Z,98.89
2023-05-19T20:28:13.947Z,98.89
2023-05-19T20:31:00.957Z,99.12
2023-05-19T20:33:47.950Z,99.15
2023-05-19T20:36:34.874Z,98.96
2023-05-19T20:39:21.725Z,99.41
2023-05-19T20:42:08.624Z,99.15
2023-05-19T20:44:55.793Z,99.28
2023-05-19T20:47:42.742Z,98.68
2023-05-19T20:50:29.848Z,99.00
2023-05-19T20:53:16.808Z,99.45
2023-05-19T20:56:05.254Z,99.49
2023-05-19T20:58:52.130Z,99.95
2023-05-19T21:01:39.213Z,100.00
2023-05-19T21:04:26.203Z,100.00
2023-05-19T21:07:13.204Z,99.81
2023-05-19T21:10:00.153Z,99.80
2023-05-19T21:12:47.249Z,100.00
2023-05-19T21:15:34.595Z,100.00
2023-05-19T21:18:21.502Z,100.00
2023-05-19T21:21:08.364Z,100.00
2023-05-19T21:23:55.348Z,100.00
2023-05-19T21:26:43.094Z,100.00
2023-05-19T21:29:30.052Z,100.00
2023-05-19T21:32:16.906Z,100.00
2023-05-19T21:35:04.588Z,100.00
2023-05-19T21:37:51.502Z,100.00
2023-05-19T21:40:38.422Z,100.00
2023-05-19T21:43:25.952Z,100.00
2023-05-19T21:46:12.898Z,100.00
2023-05-19T21:48:59.732Z,100.00
2023-05-19T21:51:46.567Z,100.00
2023-05-19T21:54:33.870Z,100.00
2023-05-19T21:57:20.777Z,100.00
2023-05-19T22:00:08.636Z,100.00
2023-05-19T22:02:55.643Z,100.00
2023-05-19T22:05:42.505Z,100.00
2023-05-19T22:08:29.423Z,100.00
2023-05-19T22:11:17.999Z,100.00
2023-05-19T22:14:04.944Z,100.00
2023-05-19T22:16:52.136Z,100.00
2023-05-19T22:19:39.008Z,100.00
2023-05-19T22:22:26.174Z,100.00
2023-05-19T22:25:13.143Z,100.00
2023-05-19T22:28:01.248Z,100.00
2023-05-19T22:30:48.158Z,100.00
2023-05-19T22:33:35.037Z,100.00
2023-05-19T22:36:22.054Z,100.00
2023-05-19T22:39:08.906Z,100.00
2023-05-19T22:41:55.801Z,100.00
2023-05-19T22:44:43.380Z,100.00
2023-05-19T22:47:30.361Z,100.00
2023-05-19T22:50:17.408Z,100.00
2023-05-19T22:53:04.327Z,100.00
2023-05-19T22:55:51.377Z,100.00
2023-05-19T22:58:38.325Z,100.00
2023-05-19T23:01:25.219Z,100.00
2023-05-19T23:04:12.310Z,100.00
2023-05-19T23:06:59.719Z,100.00
2023-05-19T23:09:46.893Z,100.00
2023-05-19T23:12:33.725Z,100.00
2023-05-19T23:15:20.664Z,100.00
2023-05-19T23:18:08.668Z,100.00
2023-05-19T23:20:55.744Z,100.00
2023-05-19T23:23:42.631Z,100.00
2023-05-19T23:26:29.519Z,100.00
2023-05-19T23:29:16.405Z,100.00
2023-05-19T23:32:03.487Z,100.00
2023-05-19T23:34:50.327Z,100.00
2023-05-19T23:37:37.258Z,100.00
2023-05-19T23:40:24.134Z,100.00
2023-05-19T23:43:11.168Z,100.00
2023-05-19T23:45:58.692Z,100.00
2023-05-19T23:48:45.566Z,100.00
2023-05-19T23:51:32.435Z,100.00
2023-05-19T23:54:19.280Z,100.00
2023-05-19T23:57:07.830Z,100.00
2023-05-19T23:59:54.725Z,100.00
